Time;durP1;ratioP1;P1;durP2;ratioP2;P2;SDS_P1;SDS_P2;PMS_P1;PMS_P2;Temp;Humidity;BMP_temperature;BMP_pressure;BME280_temperature;BME280_humidity;BME280_pressure;Samples;Min_cycle;Max_cycle;Signal;HPM_P1;HPM_P2
2023/09/25 00:00:20;;;;;;;1.30;0.50;;;18.60;96.70;;;;;;5026239;28;20049;-83
2023/09/25 00:02:48;;;;;;;3.85;0.77;;;18.60;96.70;;;;;;5035906;28;20682;-84
2023/09/25 00:05:17;;;;;;;1.55;0.63;;;18.50;96.70;;;;;;5026599;28;20461;-84
2023/09/25 00:07:45;;;;;;;1.05;0.50;;;18.50;96.70;;;;;;5010951;28;20073;-83
2023/09/25 00:10:13;;;;;;;1.80;0.70;;;18.40;96.70;;;;;;5027197;28;20046;-83
2023/09/25 00:12:43;;;;;;;1.95;0.60;;;18.40;96.70;;;;;;5026552;28;20053;-83
2023/09/25 00:15:11;;;;;;;2.10;0.60;;;18.30;96.70;;;;;;5028958;28;20044;-84
2023/09/25 00:17:40;;;;;;;1.13;0.50;;;18.30;96.70;;;;;;5026805;28;20045;-83
2023/09/25 00:20:12;;;;;;;1.45;0.60;;;18.30;96.70;;;;;;5032093;28;20060;-82
2023/09/25 00:22:41;;;;;;;1.13;0.50;;;18.20;96.70;;;;;;5027092;28;20057;-83
2023/09/25 00:25:09;;;;;;;1.88;0.80;;;18.00;96.70;;;;;;5026973;28;20718;-83
2023/09/25 00:27:37;;;;;;;1.98;0.90;;;18.00;96.70;;;;;;5026648;28;20076;-83
2023/09/25 00:30:09;;;;;;;1.00;0.50;;;18.00;96.70;;;;;;5026557;28;20163;-82
2023/09/25 00:32:37;;;;;;;1.45;0.60;;;18.10;96.70;;;;;;5007733;28;20551;-83
2023/09/25 00:35:10;;;;;;;1.20;0.50;;;18.00;96.70;;;;;;5023396;28;20104;-84
2023/09/25 00:37:38;;;;;;;1.08;0.50;;;18.00;96.70;;;;;;5030870;28;20049;-83
2023/09/25 00:40:30;;;;;;;6.55;0.90;;;18.00;96.70;;;;;;5026819;28;20648;-83
2023/09/25 00:42:56;;;;;;;3.08;0.57;;;18.10;96.70;;;;;;5026292;28;20163;-83
2023/09/25 00:45:25;;;;;;;1.08;0.50;;;18.10;96.70;;;;;;5010223;28;20636;-82
2023/09/25 00:47:54;;;;;;;1.27;0.60;;;18.00;96.70;;;;;;5026377;28;20049;-82
2023/09/25 00:50:29;;;;;;;1.58;0.80;;;18.10;96.70;;;;;;5026129;28;20045;-83
2023/09/25 00:53:07;;;;;;;1.65;0.85;;;18.10;96.70;;;;;;5025711;28;20115;-84
2023/09/25 00:55:35;;;;;;;0.98;0.43;;;18.00;96.70;;;;;;5026850;28;20056;-84
2023/09/25 00:58:07;;;;;;;1.30;0.63;;;18.00;96.70;;;;;;5009582;28;20507;-83
2023/09/25 01:00:37;;;;;;;1.60;0.60;;;18.00;96.70;;;;;;5001992;28;20049;-83
2023/09/25 01:03:06;;;;;;;2.08;0.52;;;18.00;96.70;;;;;;5026192;28;20064;-83
2023/09/25 01:05:37;;;;;;;1.63;0.68;;;18.10;96.70;;;;;;5027646;28;20064;-83
2023/09/25 01:08:10;;;;;;;1.60;0.68;;;18.00;96.70;;;;;;5031890;28;20053;-83
2023/09/25 01:10:39;;;;;;;1.17;0.40;;;18.00;96.70;;;;;;5026085;28;20057;-83
2023/09/25 01:13:10;;;;;;;1.88;0.60;;;18.00;96.70;;;;;;5026055;28;20048;-83
2023/09/25 01:15:40;;;;;;;1.13;0.57;;;17.90;96.70;;;;;;5026183;28;20503;-84
2023/09/25 01:18:08;;;;;;;2.05;0.50;;;17.80;96.70;;;;;;5006522;28;20443;-83
2023/09/25 01:20:37;;;;;;;2.20;0.60;;;17.80;96.70;;;;;;5009496;28;20119;-82
2023/09/25 01:23:07;;;;;;;1.50;0.45;;;17.80;96.70;;;;;;5025553;28;20057;-83
2023/09/25 01:25:34;;;;;;;0.98;0.50;;;17.70;96.70;;;;;;5009812;28;20042;-83
2023/09/25 01:28:03;;;;;;;1.25;0.65;;;17.70;96.70;;;;;;5026960;28;20045;-82
2023/09/25 01:30:32;;;;;;;2.17;0.52;;;17.60;96.70;;;;;;5010427;28;20052;-83
2023/09/25 01:33:00;;;;;;;0.75;0.40;;;17.60;96.70;;;;;;5012073;28;20087;-83
2023/09/25 01:35:28;;;;;;;1.85;0.90;;;17.50;96.70;;;;;;5029359;28;20051;-83
2023/09/25 01:37:59;;;;;;;2.60;0.57;;;17.50;96.70;;;;;;5022218;28;20045;-83
2023/09/25 01:40:29;;;;;;;2.13;0.60;;;17.50;96.70;;;;;;5013211;28;20581;-83
2023/09/25 01:42:57;;;;;;;2.83;0.60;;;17.60;96.70;;;;;;5029372;28;20535;-84
2023/09/25 01:45:25;;;;;;;1.42;0.50;;;17.50;96.70;;;;;;5013845;28;20107;-85
2023/09/25 01:47:53;;;;;;;2.58;0.70;;;17.60;96.70;;;;;;5030548;28;20045;-84
2023/09/25 01:50:23;;;;;;;2.22;0.52;;;17.40;96.70;;;;;;5029900;28;20056;-85
2023/09/25 01:52:52;;;;;;;1.08;0.52;;;17.50;96.70;;;;;;5028862;28;20049;-84
2023/09/25 01:55:20;;;;;;;2.67;0.70;;;17.40;96.70;;;;;;5029561;28;20132;-85
2023/09/25 01:57:49;;;;;;;1.52;0.60;;;17.20;96.70;;;;;;5029467;28;20064;-83
2023/09/25 02:00:18;;;;;;;1.70;0.35;;;17.20;96.70;;;;;;5020221;28;20060;-83
2023/09/25 02:02:47;;;;;;;1.83;0.52;;;17.30;96.70;;;;;;5037635;28;20045;-85
2023/09/25 02:05:15;;;;;;;1.30;0.50;;;17.30;96.70;;;;;;5028881;28;20133;-83
2023/09/25 02:07:44;;;;;;;3.33;0.75;;;17.30;96.70;;;;;;5009730;28;20230;-84
2023/09/25 02:10:16;;;;;;;8.82;0.82;;;17.30;96.70;;;;;;5033865;28;20080;-84
2023/09/25 02:12:45;;;;;;;1.63;0.50;;;17.40;96.70;;;;;;5030478;28;20099;-85
2023/09/25 02:15:15;;;;;;;2.35;0.85;;;17.40;96.70;;;;;;5034508;28;20054;-83
2023/09/25 02:17:44;;;;;;;2.88;0.57;;;17.40;96.70;;;;;;5028999;28;20575;-85
2023/09/25 02:20:16;;;;;;;3.17;1.00;;;17.40;96.70;;;;;;5009301;28;20053;-85
2023/09/25 02:22:46;;;;;;;2.17;0.90;;;17.40;96.70;;;;;;5025137;28;20046;-85
2023/09/25 02:25:15;;;;;;;2.72;0.85;;;17.50;96.70;;;;;;5030561;28;20060;-85
2023/09/25 02:27:43;;;;;;;4.07;0.55;;;17.50;96.70;;;;;;5028406;28;20072;-83
2023/09/25 02:30:12;;;;;;;2.33;0.70;;;17.40;96.70;;;;;;5018429;28;20103;-84
2023/09/25 02:32:43;;;;;;;1.48;0.50;;;17.30;96.70;;;;;;5029337;28;20037;-84
2023/09/25 02:35:12;;;;;;;1.60;0.60;;;17.30;96.70;;;;;;5028041;28;20045;-84
2023/09/25 02:37:41;;;;;;;1.15;0.50;;;17.30;96.70;;;;;;5028644;28;20499;-85
2023/09/25 02:40:14;;;;;;;1.70;0.80;;;17.20;96.70;;;;;;5028134;28;20048;-85
2023/09/25 02:42:46;;;;;;;1.45;0.63;;;17.20;96.70;;;;;;5012305;28;20060;-84
2023/09/25 02:45:15;;;;;;;1.35;0.60;;;17.30;96.70;;;;;;5028254;28;20053;-83
2023/09/25 02:47:45;;;;;;;1.48;0.93;;;17.40;96.70;;;;;;5029923;28;20554;-84
2023/09/25 02:50:15;;;;;;;1.73;0.80;;;17.40;96.70;;;;;;5028768;28;20143;-84
2023/09/25 02:52:43;;;;;;;1.45;0.85;;;17.40;96.70;;;;;;5028432;28;20128;-83
2023/09/25 02:55:12;;;;;;;2.70;0.70;;;17.50;96.70;;;;;;5012297;28;20045;-84
2023/09/25 02:57:40;;;;;;;2.15;1.20;;;17.60;96.70;;;;;;5029884;28;20045;-84
2023/09/25 03:00:10;;;;;;;1.40;0.68;;;17.60;96.70;;;;;;5027603;28;20045;-84
2023/09/25 03:02:41;;;;;;;3.35;0.60;;;17.40;96.70;;;;;;5029344;28;20042;-85
2023/09/25 03:05:11;;;;;;;2.13;0.80;;;17.40;96.70;;;;;;5016272;28;20454;-84
2023/09/25 03:07:41;;;;;;;1.25;0.60;;;17.40;96.70;;;;;;5029311;28;20124;-84
2023/09/25 03:10:09;;;;;;;3.83;1.08;;;17.40;96.70;;;;;;5017049;28;20076;-84
2023/09/25 03:12:38;;;;;;;2.00;0.80;;;17.30;96.70;;;;;;5029234;28;20053;-85
2023/09/25 03:15:08;;;;;;;2.03;0.63;;;17.30;96.70;;;;;;5027846;28;20642;-85
2023/09/25 03:17:37;;;;;;;2.63;1.05;;;17.40;96.70;;;;;;5028595;28;20123;-82
2023/09/25 03:20:15;;;;;;;2.03;0.95;;;17.30;96.70;;;;;;5011373;28;20080;-85
2023/09/25 03:22:46;;;;;;;2.20;0.75;;;17.40;96.70;;;;;;5027855;28;20087;-84
2023/09/25 03:25:16;;;;;;;2.08;1.00;;;17.50;96.70;;;;;;5027831;28;20045;-84
2023/09/25 03:27:45;;;;;;;1.83;0.80;;;17.60;96.70;;;;;;5027915;28;20103;-83
2023/09/25 03:30:14;;;;;;;1.63;0.70;;;17.40;96.70;;;;;;5032360;28;20037;-85
2023/09/25 03:32:43;;;;;;;2.30;0.90;;;17.40;96.70;;;;;;5011622;28;20056;-85
2023/09/25 03:35:11;;;;;;;2.17;1.05;;;17.40;96.70;;;;;;5029094;28;20049;-85
2023/09/25 03:37:40;;;;;;;2.30;0.88;;;17.30;96.70;;;;;;5027686;28;20534;-85
2023/09/25 03:40:11;;;;;;;2.33;0.80;;;17.20;96.70;;;;;;5030019;28;20041;-84
2023/09/25 03:42:40;;;;;;;2.47;1.08;;;17.20;96.70;;;;;;5018192;28;20053;-81
2023/09/25 03:45:09;;;;;;;2.95;1.10;;;17.10;96.70;;;;;;5024896;28;20060;-81
2023/09/25 03:47:37;;;;;;;2.50;0.88;;;17.10;96.70;;;;;;5027917;28;20504;-81
2023/09/25 03:50:07;;;;;;;2.35;0.82;;;17.10;96.70;;;;;;5026385;28;20065;-80
2023/09/25 03:52:36;;;;;;;2.88;0.80;;;17.20;96.70;;;;;;5024859;28;20078;-81
2023/09/25 03:55:05;;;;;;;1.48;1.00;;;17.20;96.70;;;;;;5023056;28;20049;-81
2023/09/25 03:57:34;;;;;;;1.65;0.90;;;17.10;96.70;;;;;;5025788;28;20119;-80
2023/09/25 04:00:06;;;;;;;1.95;0.70;;;17.00;96.70;;;;;;5024541;28;20057;-81
2023/09/25 04:02:38;;;;;;;1.40;0.82;;;17.00;96.70;;;;;;5026188;28;20049;-80
2023/09/25 04:05:08;;;;;;;0.93;0.63;;;17.00;96.70;;;;;;5024922;28;20554;-80
2023/09/25 04:07:37;;;;;;;1.77;0.68;;;16.90;96.70;;;;;;5024852;28;20506;-80
2023/09/25 04:10:07;;;;;;;3.83;0.77;;;16.90;96.70;;;;;;5030718;28;20037;-79
2023/09/25 04:12:36;;;;;;;1.15;0.73;;;17.10;96.70;;;;;;5025081;28;20603;-81
2023/09/25 04:15:24;;;;;;;3.28;0.90;;;17.00;96.70;;;;;;5024830;28;20053;-81
2023/09/25 04:17:57;;;;;;;2.80;0.93;;;17.00;96.70;;;;;;5027574;28;20107;-81
2023/09/25 04:20:25;;;;;;;3.08;0.80;;;17.00;96.70;;;;;;5032399;28;20041;-81
2023/09/25 04:22:57;;;;;;;3.65;1.13;;;17.00;96.70;;;;;;5025882;28;20050;-80
2023/09/25 04:25:27;;;;;;;2.05;0.60;;;17.00;96.70;;;;;;5010643;28;20144;-80
2023/09/25 04:27:57;;;;;;;2.47;0.70;;;16.90;96.70;;;;;;5008286;28;20053;-80
2023/09/25 04:30:25;;;;;;;1.85;0.90;;;16.90;96.70;;;;;;5024760;28;20053;-80
2023/09/25 04:32:54;;;;;;;1.10;0.70;;;17.00;96.70;;;;;;5026279;28;20123;-82
2023/09/25 04:35:23;;;;;;;2.95;1.13;;;16.90;96.70;;;;;;5025205;28;20045;-81
2023/09/25 04:37:53;;;;;;;5.28;1.02;;;16.90;96.70;;;;;;5007922;28;20052;-82
2023/09/25 04:40:30;;;;;;;2.67;1.08;;;16.90;96.70;;;;;;5026479;28;20046;-81
2023/09/25 04:43:00;;;;;;;5.03;1.77;;;16.90;96.70;;;;;;5024982;28;20061;-81
2023/09/25 04:45:29;;;;;;;3.35;1.10;;;16.80;96.70;;;;;;5025498;28;20065;-81
2023/09/25 04:47:59;;;;;;;1.88;1.15;;;16.70;96.70;;;;;;5027091;28;20049;-81
2023/09/25 04:50:27;;;;;;;3.03;1.10;;;16.70;96.70;;;;;;5026440;28;20040;-80
2023/09/25 04:52:55;;;;;;;2.22;0.82;;;16.60;96.70;;;;;;5013994;28;20049;-81
2023/09/25 04:55:23;;;;;;;3.83;0.98;;;16.60;96.70;;;;;;5025589;28;20046;-82
2023/09/25 04:57:52;;;;;;;4.80;1.02;;;16.50;96.70;;;;;;5025352;28;20144;-81
2023/09/25 05:00:25;;;;;;;3.28;0.93;;;16.60;96.70;;;;;;5025286;28;20050;-81
2023/09/25 05:02:55;;;;;;;3.17;1.10;;;16.60;96.70;;;;;;5025689;28;20750;-81
2023/09/25 05:05:24;;;;;;;2.80;1.13;;;16.60;96.70;;;;;;5023649;28;20050;-81
2023/09/25 05:07:54;;;;;;;3.67;1.13;;;16.50;96.70;;;;;;5030532;28;20060;-81
2023/09/25 05:10:25;;;;;;;2.83;0.98;;;16.50;96.70;;;;;;5012775;28;20139;-82
2023/09/25 05:12:54;;;;;;;2.83;1.20;;;16.20;96.70;;;;;;5008999;28;20049;-82
2023/09/25 05:15:24;;;;;;;7.20;1.38;;;16.00;96.70;;;;;;5028016;28;20132;-82
2023/09/25 05:17:52;;;;;;;4.28;1.77;;;16.10;96.70;;;;;;5028930;28;20053;-81
2023/09/25 05:20:22;;;;;;;22.30;12.45;;;16.20;96.70;;;;;;5030999;28;20038;-81
2023/09/25 05:22:52;;;;;;;58.60;30.67;;;16.40;96.70;;;;;;5030023;28;20067;-81
2023/09/25 05:25:22;;;;;;;36.42;19.67;;;16.40;96.70;;;;;;5033531;28;20045;-81
2023/09/25 05:27:51;;;;;;;35.67;18.95;;;16.60;96.70;;;;;;5032282;28;20117;-82
2023/09/25 05:30:20;;;;;;;24.98;12.93;;;16.60;96.70;;;;;;5030393;28;20156;-81
2023/09/25 05:32:51;;;;;;;19.33;9.45;;;16.60;96.70;;;;;;5035142;28;20045;-81
2023/09/25 05:35:20;;;;;;;12.48;7.53;;;16.80;96.70;;;;;;5037855;28;20045;-81
2023/09/25 05:37:48;;;;;;;12.45;7.07;;;16.80;96.70;;;;;;5028502;28;20240;-81
2023/09/25 05:40:18;;;;;;;11.70;5.53;;;16.80;96.70;;;;;;5029697;28;20050;-81
2023/09/25 05:42:48;;;;;;;8.32;4.50;;;16.80;96.70;;;;;;5027610;28;20045;-80
2023/09/25 05:45:17;;;;;;;8.65;3.78;;;16.80;96.70;;;;;;5030096;28;20056;-81
2023/09/25 05:47:46;;;;;;;6.25;3.50;;;16.80;96.70;;;;;;5027839;28;20039;-80
2023/09/25 05:50:16;;;;;;;6.60;3.03;;;16.90;96.70;;;;;;5013323;28;20057;-81
2023/09/25 05:52:44;;;;;;;9.13;3.40;;;16.90;96.70;;;;;;5030037;28;20553;-81
2023/09/25 05:55:12;;;;;;;6.95;3.15;;;17.00;96.70;;;;;;5029343;28;20394;-81
2023/09/25 05:57:41;;;;;;;9.75;2.95;;;17.00;96.70;;;;;;5033335;28;20128;-81
2023/09/25 06:00:13;;;;;;;7.13;2.97;;;16.90;96.70;;;;;;5034454;28;20100;-80
2023/09/25 06:02:42;;;;;;;12.20;4.63;;;17.00;96.70;;;;;;5027326;28;20091;-80
2023/09/25 06:05:15;;;;;;;6.15;3.38;;;17.00;96.70;;;;;;5027412;28;20045;-81
2023/09/25 06:07:46;;;;;;;8.82;3.10;;;17.10;96.70;;;;;;5032794;28;20045;-81
2023/09/25 06:10:17;;;;;;;6.93;3.42;;;17.20;96.70;;;;;;5032353;28;20045;-81
2023/09/25 06:12:46;;;;;;;11.57;3.83;;;17.30;96.70;;;;;;5022752;28;20060;-81
2023/09/25 06:15:14;;;;;;;12.35;3.55;;;17.40;96.70;;;;;;5014568;28;20091;-81
2023/09/25 06:17:43;;;;;;;10.32;3.65;;;17.50;96.70;;;;;;5026732;28;20120;-81
2023/09/25 06:20:15;;;;;;;10.20;3.72;;;17.40;96.70;;;;;;5033679;28;20052;-81
2023/09/25 06:22:47;;;;;;;9.00;3.65;;;17.50;96.70;;;;;;5011742;28;20053;-81
2023/09/25 06:25:18;;;;;;;8.35;3.72;;;17.60;96.70;;;;;;5029598;28;20045;-81
2023/09/25 06:27:47;;;;;;;9.05;3.75;;;17.70;96.70;;;;;;5027310;28;20095;-82
2023/09/25 06:30:18;;;;;;;9.60;3.40;;;17.70;96.70;;;;;;5028589;28;20124;-82
2023/09/25 06:32:47;;;;;;;4.70;2.25;;;17.70;96.70;;;;;;5015203;28;20740;-82
2023/09/25 06:35:15;;;;;;;4.45;2.08;;;17.70;96.70;;;;;;5026426;28;20045;-81
2023/09/25 06:37:44;;;;;;;6.97;1.42;;;17.90;96.70;;;;;;5035700;28;20073;-82
2023/09/25 06:40:15;;;;;;;3.72;1.92;;;17.90;96.70;;;;;;5031898;28;20045;-84
2023/09/25 06:42:44;;;;;;;6.60;1.90;;;18.00;96.70;;;;;;5008614;28;20054;-79
2023/09/25 06:45:12;;;;;;;4.53;2.50;;;18.10;96.70;;;;;;5024847;28;20380;-83
2023/09/25 06:47:40;;;;;;;5.18;2.50;;;18.20;96.70;;;;;;5027378;28;20107;-80
2023/09/25 06:50:10;;;;;;;6.90;2.55;;;18.20;96.70;;;;;;5035823;28;20030;-82
2023/09/25 06:52:40;;;;;;;5.55;2.38;;;18.30;96.70;;;;;;5029516;28;20499;-81
2023/09/25 06:55:10;;;;;;;5.30;2.58;;;18.30;96.70;;;;;;5059513;28;20388;-80
2023/09/25 06:57:39;;;;;;;4.85;2.17;;;18.40;96.70;;;;;;5029887;28;20049;-81
2023/09/25 07:00:09;;;;;;;4.68;2.00;;;18.50;96.70;;;;;;5009282;28;20045;-80
2023/09/25 07:02:38;;;;;;;2.70;1.60;;;18.60;96.70;;;;;;5028977;28;20045;-80
2023/09/25 07:05:06;;;;;;;3.42;1.77;;;18.70;96.70;;;;;;5013156;28;20390;-80
2023/09/25 07:07:36;;;;;;;4.03;1.30;;;18.70;96.70;;;;;;5025374;28;20503;-80
2023/09/25 07:10:09;;;;;;;3.90;1.17;;;18.70;96.70;;;;;;5043580;28;20053;-79
2023/09/25 07:12:39;;;;;;;3.95;1.20;;;18.70;96.70;;;;;;5029103;28;20096;-83
2023/09/25 07:15:08;;;;;;;1.35;0.85;;;18.80;96.70;;;;;;5025174;28;20064;-80
2023/09/25 07:17:36;;;;;;;2.17;0.95;;;18.90;96.70;;;;;;5028790;28;20045;-81
2023/09/25 07:20:06;;;;;;;3.88;1.13;;;19.10;96.70;;;;;;5027705;28;20042;-80
2023/09/25 07:22:34;;;;;;;2.78;1.00;;;19.20;96.70;;;;;;5018424;28;20045;-80
2023/09/25 07:25:02;;;;;;;2.47;0.80;;;19.30;96.70;;;;;;5028834;28;20095;-80
2023/09/25 07:27:32;;;;;;;2.63;1.00;;;19.50;96.70;;;;;;5025707;28;20664;-80
2023/09/25 07:30:05;;;;;;;2.10;0.60;;;19.60;96.70;;;;;;5025380;28;20041;-81
2023/09/25 07:32:34;;;;;;;1.88;0.90;;;19.80;96.70;;;;;;5025896;28;20052;-80
2023/09/25 07:35:07;;;;;;;5.47;1.00;;;19.90;96.70;;;;;;5030769;28;20064;-80
2023/09/25 07:37:35;;;;;;;2.72;0.65;;;20.00;96.70;;;;;;5009280;28;20502;-82
2023/09/25 07:40:09;;;;;;;2.83;0.55;;;20.10;96.70;;;;;;5030582;28;20541;-86
2023/09/25 07:42:38;;;;;;;1.98;0.68;;;20.20;96.70;;;;;;5028306;28;20080;-84
2023/09/25 07:45:11;;;;;;;3.55;0.80;;;20.30;96.70;;;;;;5027844;28;20046;-82
2023/09/25 07:47:41;;;;;;;1.80;0.63;;;20.40;96.70;;;;;;5019736;28;20042;-82
2023/09/25 07:50:10;;;;;;;2.30;0.85;;;20.50;96.70;;;;;;5027330;28;20061;-82
2023/09/25 07:52:39;;;;;;;1.50;0.50;;;20.70;96.70;;;;;;5027860;28;20502;-84
2023/09/25 07:55:10;;;;;;;1.83;0.60;;;20.80;96.70;;;;;;5029068;28;20414;-84
2023/09/25 07:57:44;;;;;;;3.55;0.73;;;20.90;96.70;;;;;;5026997;28;20046;-83
2023/09/25 08:02:52;;;;;;;2.13;0.70;;;20.90;96.70;;;;;;5028237;28;20096;-83
2023/09/25 08:05:22;;;;;;;1.45;0.70;;;20.90;96.70;;;;;;5027612;28;20041;-83
2023/09/25 08:07:54;;;;;;;2.78;0.90;;;21.00;96.70;;;;;;5007751;28;20076;-83
2023/09/25 08:10:24;;;;;;;1.25;0.70;;;21.10;96.70;;;;;;5026654;28;20046;-83
2023/09/25 08:12:52;;;;;;;2.17;0.70;;;21.20;96.70;;;;;;5026628;28;20076;-83
2023/09/25 08:15:23;;;;;;;2.83;1.13;;;21.20;96.70;;;;;;5026103;28;20160;-82
2023/09/25 08:17:51;;;;;;;3.50;0.98;;;21.20;96.70;;;;;;5026377;28;20053;-83
2023/09/25 08:20:20;;;;;;;1.38;0.88;;;21.20;96.70;;;;;;5026015;28;20076;-83
2023/09/25 08:22:50;;;;;;;1.73;0.80;;;21.30;96.70;;;;;;5026203;28;20487;-83
2023/09/25 08:25:18;;;;;;;1.25;0.70;;;21.40;96.70;;;;;;5025809;28;20049;-82
2023/09/25 08:27:48;;;;;;;2.10;1.00;;;21.50;96.70;;;;;;5008827;28;20140;-81
2023/09/25 08:30:16;;;;;;;1.52;0.70;;;21.50;96.70;;;;;;5024939;28;20065;-82
2023/09/25 08:32:46;;;;;;;2.55;0.68;;;21.50;96.70;;;;;;5026077;28;20037;-81
2023/09/25 08:35:15;;;;;;;2.65;0.70;;;21.60;96.70;;;;;;5026656;28;20048;-82
2023/09/25 08:37:43;;;;;;;1.52;0.70;;;21.70;96.70;;;;;;5026015;28;20046;-83
2023/09/25 08:40:13;;;;;;;1.90;0.50;;;21.90;96.70;;;;;;5026158;28;20053;-83
2023/09/25 08:42:42;;;;;;;1.85;0.50;;;22.00;96.70;;;;;;5028719;28;20045;-83
2023/09/25 08:45:10;;;;;;;1.33;0.60;;;22.00;96.70;;;;;;5030352;28;20522;-82
2023/09/25 08:47:40;;;;;;;0.85;0.50;;;22.00;96.70;;;;;;5022681;28;20048;-82
2023/09/25 08:50:10;;;;;;;2.25;0.70;;;22.00;96.70;;;;;;5029535;28;20038;-83
2023/09/25 08:52:39;;;;;;;1.20;0.80;;;22.20;96.70;;;;;;5029717;28;20104;-83
2023/09/25 08:55:08;;;;;;;1.17;0.65;;;22.20;96.70;;;;;;5029365;28;20518;-82
2023/09/25 08:57:37;;;;;;;1.83;0.50;;;22.40;96.70;;;;;;5030911;28;20037;-83
2023/09/25 09:00:14;;;;;;;2.03;0.68;;;22.50;96.70;;;;;;5020869;28;20058;-82
2023/09/25 09:02:43;;;;;;;0.95;0.57;;;22.40;96.70;;;;;;5029020;28;20141;-82
2023/09/25 09:05:13;;;;;;;1.58;0.50;;;22.60;96.70;;;;;;5028187;28;20153;-81
2023/09/25 09:07:55;;;;;;;1.83;0.70;;;22.80;96.70;;;;;;5029561;28;20522;-81
2023/09/25 09:10:28;;;;;;;1.60;0.70;;;22.80;96.70;;;;;;5030018;28;20053;-81
2023/09/25 09:12:56;;;;;;;2.10;0.60;;;22.90;96.70;;;;;;5028533;28;20163;-82
2023/09/25 09:15:28;;;;;;;1.38;0.60;;;22.90;96.70;;;;;;5035173;28;20049;-82
2023/09/25 09:17:57;;;;;;;1.58;0.50;;;22.70;96.70;;;;;;5041825;28;20041;-81
2023/09/25 09:20:38;;;;;;;3.75;0.70;;;22.70;96.70;;;;;;5029171;28;20053;-82
2023/09/25 09:23:08;;;;;;;1.65;0.70;;;22.80;96.70;;;;;;5023997;28;20072;-83
2023/09/25 09:25:37;;;;;;;2.95;0.80;;;22.80;96.70;;;;;;5009044;28;20060;-81
2023/09/25 09:28:06;;;;;;;1.40;0.70;;;23.00;96.70;;;;;;5029153;28;20120;-82
2023/09/25 09:30:36;;;;;;;1.15;0.77;;;23.00;96.70;;;;;;5028646;28;20438;-82
2023/09/25 09:33:07;;;;;;;1.08;0.63;;;23.10;96.70;;;;;;5012668;28;20168;-82
2023/09/25 09:35:37;;;;;;;1.13;0.50;;;23.20;96.70;;;;;;5030464;28;20041;-82
2023/09/25 09:38:07;;;;;;;0.85;0.50;;;23.10;96.70;;;;;;5029239;28;20069;-83
2023/09/25 09:40:35;;;;;;;1.30;0.57;;;23.20;96.70;;;;;;5028716;28;20144;-82
2023/09/25 09:43:06;;;;;;;1.23;0.70;;;23.30;96.70;;;;;;5028586;28;20049;-80
2023/09/25 09:45:35;;;;;;;2.38;0.60;;;23.30;96.70;;;;;;5028531;28;20073;-81
2023/09/25 09:48:08;;;;;;;1.67;0.90;;;23.50;96.70;;;;;;5027051;28;20121;-82
2023/09/25 09:50:44;;;;;;;1.15;0.80;;;23.70;96.70;;;;;;5029449;28;20053;-82
2023/09/25 09:53:14;;;;;;;1.65;0.80;;;23.80;96.70;;;;;;5026883;28;20672;-81
2023/09/25 09:55:43;;;;;;;1.55;0.52;;;24.00;96.70;;;;;;5029669;28;20059;-83
2023/09/25 09:58:12;;;;;;;2.78;0.60;;;24.10;96.70;;;;;;5029049;28;20068;-83
2023/09/25 10:00:40;;;;;;;1.45;0.55;;;24.00;96.70;;;;;;5028891;28;20053;-81
2023/09/25 10:03:09;;;;;;;0.90;0.50;;;24.00;96.70;;;;;;5030110;28;20060;-83
2023/09/25 10:05:45;;;;;;;1.90;0.80;;;24.20;96.70;;;;;;5026409;28;20073;-81
2023/09/25 10:08:13;;;;;;;1.13;0.52;;;24.40;96.70;;;;;;5020800;28;20051;-80
2023/09/25 10:10:45;;;;;;;2.28;0.75;;;24.60;96.70;;;;;;5028667;28;20125;-81
2023/09/25 10:13:18;;;;;;;3.88;0.73;;;24.70;96.70;;;;;;5007745;28;20053;-82
2023/09/25 10:15:53;;;;;;;1.42;0.70;;;24.70;96.70;;;;;;5011275;28;20107;-81
2023/09/25 10:18:21;;;;;;;2.30;0.60;;;24.80;96.70;;;;;;5019552;28;20128;-82
2023/09/25 10:20:57;;;;;;;2.03;0.70;;;24.90;96.70;;;;;;5022247;28;20296;-83
2023/09/25 10:23:25;;;;;;;2.58;0.70;;;24.90;96.70;;;;;;5029123;28;20057;-82
2023/09/25 10:25:56;;;;;;;1.20;0.80;;;24.70;96.70;;;;;;5028768;28;20046;-80
2023/09/25 10:28:28;;;;;;;1.75;0.70;;;24.70;96.70;;;;;;5028160;28;20449;-81
2023/09/25 10:30:57;;;;;;;1.20;0.70;;;24.90;96.70;;;;;;5032330;28;20598;-81
2023/09/25 10:33:28;;;;;;;2.22;0.63;;;25.10;96.70;;;;;;5028876;28;20132;-84
2023/09/25 10:36:03;;;;;;;0.88;0.60;;;25.30;96.70;;;;;;5014754;28;20053;-82
2023/09/25 10:38:34;;;;;;;1.77;0.88;;;25.30;96.70;;;;;;5026880;28;20088;-77
2023/09/25 10:41:05;;;;;;;1.40;0.75;;;25.20;96.70;;;;;;5044208;28;20053;-86
2023/09/25 10:43:34;;;;;;;1.00;0.80;;;25.40;96.70;;;;;;5028510;28;20046;-83
2023/09/25 10:46:02;;;;;;;0.90;0.70;;;25.50;96.70;;;;;;5024235;28;20071;-84
2023/09/25 10:48:31;;;;;;;2.45;0.80;;;25.60;96.70;;;;;;5028284;28;20059;-83
2023/09/25 10:51:01;;;;;;;1.00;0.68;;;25.80;96.70;;;;;;5010964;28;20120;-84
2023/09/25 10:53:29;;;;;;;1.05;0.75;;;25.60;96.70;;;;;;5020370;28;20053;-83
2023/09/25 10:55:57;;;;;;;1.23;0.60;;;25.50;96.70;;;;;;5029837;28;20057;-83
2023/09/25 10:58:26;;;;;;;1.50;0.65;;;25.60;96.70;;;;;;5029817;28;20101;-83
2023/09/25 11:01:23;;;;;;;1.10;0.68;;;25.60;96.70;;;;;;5027701;28;20056;-83
2023/09/25 11:03:53;;;;;;;1.02;0.50;;;25.70;96.70;;;;;;5019757;28;20570;-84
2023/09/25 11:06:36;;;;;;;1.35;0.65;;;25.90;96.70;;;;;;5026852;28;20129;-84
2023/09/25 11:09:10;;;;;;;2.08;0.68;;;26.10;96.70;;;;;;5029147;28;20505;-84
2023/09/25 11:11:40;;;;;;;0.88;0.43;;;26.10;96.70;;;;;;5027790;28;20049;-83
2023/09/25 11:14:09;;;;;;;1.05;0.50;;;26.00;96.70;;;;;;5030264;28;20053;-84
2023/09/25 11:16:39;;;;;;;0.40;0.30;;;26.00;96.70;;;;;;5027838;28;20041;-83
2023/09/25 11:19:10;;;;;;;2.95;0.50;;;26.20;96.70;;;;;;5029448;28;20053;-83
2023/09/25 11:21:44;;;;;;;0.60;0.50;;;26.00;96.70;;;;;;5028594;28;20045;-83
2023/09/25 11:24:13;;;;;;;0.60;0.40;;;26.00;96.70;;;;;;5028119;28;20064;-84
2023/09/25 11:26:43;;;;;;;1.60;0.50;;;26.00;96.70;;;;;;5029204;28;20136;-83
2023/09/25 11:29:12;;;;;;;1.58;0.50;;;26.30;96.70;;;;;;5029260;28;20042;-82
2023/09/25 11:31:41;;;;;;;2.80;0.50;;;26.40;96.70;;;;;;5028338;28;20053;-84
2023/09/25 11:34:31;;;;;;;6.68;0.65;;;26.40;96.70;;;;;;5027779;28;20053;-83
2023/09/25 11:37:04;;;;;;;1.35;0.63;;;26.70;96.70;;;;;;5027318;28;20075;-83
2023/09/25 11:39:33;;;;;;;1.60;0.70;;;26.70;96.70;;;;;;5029294;28;20041;-84
2023/09/25 11:42:03;;;;;;;1.65;0.55;;;26.80;96.70;;;;;;5027800;28;20817;-84
2023/09/25 11:44:31;;;;;;;2.13;0.50;;;26.90;96.70;;;;;;5020751;28;21027;-84
2023/09/25 11:46:59;;;;;;;0.73;0.40;;;26.90;96.70;;;;;;5010674;28;20050;-83
2023/09/25 11:49:29;;;;;;;0.63;0.50;;;26.90;96.70;;;;;;5028245;28;20408;-83
2023/09/25 11:51:57;;;;;;;2.08;0.50;;;26.90;96.70;;;;;;5028258;28;20046;-83
2023/09/25 11:54:27;;;;;;;0.75;0.40;;;26.80;96.70;;;;;;5027123;28;20053;-82
2023/09/25 11:56:55;;;;;;;0.60;0.30;;;26.70;96.70;;;;;;5035831;28;20495;-84
2023/09/25 11:59:25;;;;;;;0.70;0.40;;;27.00;96.70;;;;;;5028743;28;20067;-83
2023/09/25 12:01:53;;;;;;;0.70;0.55;;;27.10;96.70;;;;;;5027011;28;20033;-84
2023/09/25 12:04:21;;;;;;;1.33;0.55;;;27.10;96.70;;;;;;5011185;28;20045;-83
2023/09/25 12:06:51;;;;;;;0.30;0.30;;;27.20;96.70;;;;;;5007065;28;20057;-84
2023/09/25 12:09:19;;;;;;;1.00;0.60;;;27.20;96.70;;;;;;5026669;28;20137;-84
2023/09/25 12:11:48;;;;;;;0.77;0.30;;;27.20;96.70;;;;;;5026841;28;20067;-84
2023/09/25 12:14:19;;;;;;;0.65;0.43;;;27.20;96.70;;;;;;5026610;28;20084;-84
2023/09/25 12:16:47;;;;;;;2.13;0.60;;;27.30;96.70;;;;;;5027931;28;20120;-83
2023/09/25 12:19:16;;;;;;;1.25;0.60;;;27.50;96.70;;;;;;5027372;28;20049;-82
2023/09/25 12:21:44;;;;;;;1.33;0.52;;;27.40;96.70;;;;;;5008035;28;20542;-83
2023/09/25 12:24:13;;;;;;;1.40;0.60;;;27.40;96.70;;;;;;5028048;28;20092;-83
2023/09/25 12:26:44;;;;;;;1.38;0.55;;;27.50;96.70;;;;;;5027025;28;20049;-83
2023/09/25 12:29:14;;;;;;;1.00;0.45;;;27.60;96.70;;;;;;5026534;28;20128;-82
2023/09/25 12:31:42;;;;;;;1.02;0.70;;;27.60;96.70;;;;;;5028803;28;20046;-82
2023/09/25 12:34:10;;;;;;;2.15;0.70;;;27.80;96.70;;;;;;5010567;28;20581;-83
2023/09/25 12:40:05;;;;;;;1.23;0.63;;;28.20;96.70;;;;;;5019581;28;20076;-83
2023/09/25 12:42:36;;;;;;;0.50;0.40;;;28.10;96.70;;;;;;5027774;28;20049;-83
2023/09/25 12:45:23;;;;;;;1.10;0.73;;;27.90;96.70;;;;;;5012910;28;20392;-83
2023/09/25 12:47:51;;;;;;;1.52;0.75;;;27.80;96.70;;;;;;5026317;28;20140;-83
2023/09/25 12:50:21;;;;;;;2.95;0.60;;;28.10;96.70;;;;;;5026760;28;20124;-83
2023/09/25 12:52:49;;;;;;;1.73;0.65;;;28.20;96.70;;;;;;5026234;28;20050;-83
2023/09/25 12:55:17;;;;;;;0.82;0.60;;;28.20;96.70;;;;;;5026389;28;20559;-83
2023/09/25 12:57:48;;;;;;;3.05;0.70;;;28.10;96.70;;;;;;5010197;28;20442;-86
2023/09/25 13:00:18;;;;;;;1.25;0.50;;;27.90;96.70;;;;;;5026039;28;20057;-84
2023/09/25 13:02:54;;;;;;;1.20;0.77;;;27.80;96.70;;;;;;5026134;28;20049;-81
2023/09/25 13:05:23;;;;;;;1.95;0.43;;;27.70;96.70;;;;;;5011018;28;20427;-83